createdAt,value
2022-12-01T00:00:17.652Z,19.40
2022-12-01T00:02:45.032Z,19.58
2022-12-01T00:05:12.324Z,20.52
2022-12-01T00:07:39.652Z,20.08
2022-12-01T00:10:25.849Z,18.77
2022-12-01T00:12:56.773Z,17.17
2022-12-01T00:15:26.730Z,19.63
2022-12-01T00:17:54.016Z,22.15
2022-12-01T00:20:21.358Z,25.70
2022-12-01T00:22:49.486Z,27.50
2022-12-01T00:25:17.604Z,25.73
2022-12-01T00:27:48.219Z,28.27
2022-12-01T00:30:15.555Z,27.23
2022-12-01T00:32:42.795Z,29.25
2022-12-01T00:35:10.260Z,28.67
2022-12-01T00:37:37.591Z,27.95
2022-12-01T00:40:05.350Z,28.83
2022-12-01T00:42:32.752Z,29.48
2022-12-01T00:45:00.045Z,29.63
2022-12-01T00:47:27.318Z,27.40
2022-12-01T00:49:54.571Z,27.88
2022-12-01T00:52:21.826Z,28.02
2022-12-01T00:54:49.027Z,28.48
2022-12-01T00:57:16.277Z,28.33
2022-12-01T00:59:43.496Z,30.77
2022-12-01T01:02:10.888Z,28.35
2022-12-01T01:04:38.208Z,28.70
2022-12-01T01:07:05.551Z,27.63
2022-12-01T01:09:33.527Z,30.35
2022-12-01T01:12:00.807Z,27.77
2022-12-01T01:14:28.252Z,30.00
2022-12-01T01:16:56.484Z,28.65
2022-12-01T01:19:24.222Z,27.95
2022-12-01T01:21:51.514Z,28.33
2022-12-01T01:24:18.917Z,28.88
2022-12-01T01:26:46.269Z,26.85
2022-12-01T01:29:13.537Z,27.90
2022-12-01T01:31:40.763Z,26.65
2022-12-01T01:34:08.039Z,27.85
2022-12-01T01:36:35.371Z,26.73
2022-12-01T01:39:02.856Z,29.10
2022-12-01T01:41:30.264Z,26.77
2022-12-01T01:44:04.615Z,29.42
2022-12-01T01:46:33.500Z,27.17
2022-12-01T01:49:05.787Z,24.35
2022-12-01T01:51:35.830Z,26.45
2022-12-01T01:54:07.035Z,28.08
2022-12-01T01:56:35.869Z,25.88
2022-12-01T01:59:03.571Z,23.95
2022-12-01T02:01:31.731Z,25.90
2022-12-01T02:03:59.183Z,27.83
2022-12-01T02:06:26.455Z,27.05
2022-12-01T02:08:53.788Z,27.73
2022-12-01T02:11:29.872Z,26.95
2022-12-01T02:14:06.774Z,24.75
2022-12-01T02:16:52.826Z,23.98
2022-12-01T02:19:38.782Z,27.70
2022-12-01T02:22:15.608Z,27.75
2022-12-01T02:24:56.396Z,27.17
2022-12-01T02:27:30.867Z,27.17
2022-12-01T02:30:05.247Z,28.77
2022-12-01T02:32:40.889Z,26.07
2022-12-01T02:35:08.119Z,29.15
2022-12-01T02:37:39.027Z,28.35
2022-12-01T02:40:15.636Z,27.45
2022-12-01T02:43:00.101Z,29.50
2022-12-01T02:45:31.708Z,26.40
2022-12-01T02:48:02.065Z,28.30
2022-12-01T02:50:30.970Z,27.50
2022-12-01T02:52:58.436Z,27.10
2022-12-01T02:55:25.668Z,28.50
2022-12-01T02:57:52.873Z,26.08
2022-12-01T03:00:20.247Z,25.75
2022-12-01T03:02:50.164Z,26.55
2022-12-01T03:05:24.329Z,27.27
2022-12-01T03:07:54.678Z,19.75
2022-12-01T03:10:32.374Z,26.55
2022-12-01T03:13:09.010Z,28.30
2022-12-01T03:15:51.396Z,27.17
2022-12-01T03:18:18.645Z,29.52
2022-12-01T03:21:09.657Z,27.75
2022-12-01T03:23:40.170Z,27.77
2022-12-01T03:26:09.136Z,28.60
2022-12-01T03:28:39.417Z,27.73
2022-12-01T03:31:08.872Z,26.85
2022-12-01T03:33:40.171Z,27.00
2022-12-01T03:36:07.522Z,27.75
2022-12-01T03:38:36.381Z,26.83
2022-12-01T03:41:08.825Z,25.80
2022-12-01T03:43:37.697Z,26.00
2022-12-01T03:46:13.442Z,25.67
2022-12-01T03:48:40.998Z,23.55
2022-12-01T03:51:22.486Z,26.27
2022-12-01T03:54:12.897Z,24.17
2022-12-01T03:56:44.930Z,25.90
2022-12-01T03:59:12.197Z,25.10
2022-12-01T04:01:39.542Z,27.40
2022-12-01T04:04:08.293Z,25.00
2022-12-01T04:06:35.613Z,26.13
2022-12-01T04:09:02.969Z,25.23
2022-12-01T04:11:48.936Z,26.50
2022-12-01T04:14:16.270Z,21.80
2022-12-01T04:16:43.487Z,22.85
2022-12-01T04:19:11.497Z,21.70
2022-12-01T04:21:38.828Z,25.27
2022-12-01T04:24:06.150Z,21.42
2022-12-01T04:26:35.051Z,25.55
2022-12-01T04:29:03.049Z,22.80
2022-12-01T04:31:30.404Z,24.20
2022-12-01T04:33:58.791Z,19.73
2022-12-01T04:36:26.714Z,22.90
2022-12-01T04:38:54.072Z,23.63
2022-12-01T04:41:21.312Z,23.20
2022-12-01T04:43:48.549Z,21.52
2022-12-01T04:46:15.994Z,22.55
2022-12-01T04:48:43.671Z,21.35
2022-12-01T04:51:10.894Z,21.70
2022-12-01T04:53:38.322Z,19.45
2022-12-01T04:56:05.787Z,16.67
2022-12-01T04:58:33.933Z,17.35
2022-12-01T05:01:05.755Z,15.88
2022-12-01T05:03:33.346Z,16.25
2022-12-01T05:06:08.101Z,16.92
2022-12-01T05:08:35.437Z,15.82
2022-12-01T05:11:03.043Z,16.45
2022-12-01T05:13:30.345Z,15.88
2022-12-01T05:16:11.030Z,12.60
2022-12-01T05:18:38.715Z,15.45
2022-12-01T05:21:07.590Z,14.93
2022-12-01T05:23:36.356Z,15.20
2022-12-01T05:26:04.263Z,13.93
2022-12-01T05:28:31.706Z,14.20
2022-12-01T05:30:59.117Z,13.50
2022-12-01T05:33:27.185Z,13.30
2022-12-01T05:35:54.559Z,13.43
2022-12-01T05:38:21.780Z,14.68
2022-12-01T05:40:55.955Z,13.90
2022-12-01T05:43:28.681Z,13.73
2022-12-01T05:45:56.731Z,14.05
2022-12-01T05:48:24.324Z,14.60
2022-12-01T05:50:51.738Z,14.27
2022-12-01T05:53:19.659Z,15.35
2022-12-01T05:55:46.940Z,16.35
2022-12-01T05:58:14.231Z,14.85
2022-12-01T06:00:45.599Z,15.40
2022-12-01T06:03:13.862Z,14.75
2022-12-01T06:05:41.504Z,14.95
2022-12-01T06:08:08.888Z,16.00
2022-12-01T06:10:36.133Z,15.38
2022-12-01T06:13:03.389Z,17.27
2022-12-01T06:15:30.611Z,16.05
2022-12-01T06:18:00.996Z,15.23
2022-12-01T06:20:28.476Z,15.52
2022-12-01T06:22:55.725Z,17.98
2022-12-01T06:25:22.954Z,16.65
2022-12-01T06:27:50.272Z,16.50
2022-12-01T06:30:17.605Z,15.90
2022-12-01T06:32:44.810Z,16.00
2022-12-01T06:35:12.841Z,16.50
2022-12-01T06:37:40.105Z,15.45
2022-12-01T06:40:07.986Z,14.60
2022-12-01T06:42:35.229Z,16.50
2022-12-01T06:45:02.908Z,15.95
2022-12-01T06:47:30.179Z,16.15
2022-12-01T06:49:57.597Z,14.07
2022-12-01T06:52:24.846Z,13.20
2022-12-01T06:54:52.104Z,12.50
2022-12-01T06:57:19.725Z,13.18
2022-12-01T06:59:47.838Z,13.30
2022-12-01T07:02:17.065Z,14.13
2022-12-01T07:04:44.462Z,14.00
2022-12-01T07:07:12.437Z,14.73
2022-12-01T07:09:40.133Z,13.43
2022-12-01T07:12:07.627Z,14.73
2022-12-01T07:14:35.716Z,11.98
2022-12-01T07:17:03.097Z,13.50
2022-12-01T07:19:30.541Z,12.57
2022-12-01T07:21:57.945Z,13.52
2022-12-01T07:24:25.238Z,13.48
2022-12-01T07:26:52.500Z,13.55
2022-12-01T07:29:19.883Z,13.20
2022-12-01T07:31:47.133Z,11.82
2022-12-01T07:34:14.457Z,14.85
2022-12-01T07:36:41.832Z,12.98
2022-12-01T07:39:09.317Z,12.57
2022-12-01T07:41:36.754Z,12.45
2022-12-01T07:44:04.036Z,13.40
2022-12-01T07:46:31.402Z,12.75
2022-12-01T07:48:59.547Z,13.50
2022-12-01T07:51:27.512Z,13.40
2022-12-01T07:53:55.836Z,12.13
2022-12-01T07:56:23.528Z,12.77
2022-12-01T07:58:51.509Z,14.30
2022-12-01T08:01:20.455Z,13.35
2022-12-01T08:03:51.428Z,12.70
2022-12-01T08:06:18.772Z,13.07
2022-12-01T08:08:46.343Z,12.68
2022-12-01T08:11:14.882Z,14.68
2022-12-01T08:13:42.644Z,16.05
2022-12-01T08:16:14.142Z,12.50
2022-12-01T08:18:45.060Z,13.40
2022-12-01T08:21:14.255Z,14.48
2022-12-01T08:23:42.246Z,14.38
2022-12-01T08:26:14.053Z,15.50
2022-12-01T08:28:41.296Z,18.30
2022-12-01T08:31:09.548Z,16.75
2022-12-01T08:33:37.166Z,14.98
2022-12-01T08:36:05.204Z,13.77
2022-12-01T08:38:32.436Z,13.38
2022-12-01T08:41:03.092Z,12.63
2022-12-01T08:46:17.906Z,13.43
2022-12-01T08:48:45.169Z,13.15
2022-12-01T08:51:13.731Z,12.77
2022-12-01T08:53:45.629Z,13.95
2022-12-01T08:56:21.948Z,14.75
2022-12-01T08:58:50.409Z,13.10
2022-12-01T09:01:18.091Z,13.25
2022-12-01T09:03:45.451Z,13.00
2022-12-01T09:06:14.195Z,11.75
2022-12-01T09:08:41.497Z,13.55
2022-12-01T09:11:11.147Z,13.38
2022-12-01T09:13:39.620Z,15.73
2022-12-01T09:16:08.589Z,13.50
2022-12-01T09:18:35.848Z,13.07
2022-12-01T09:21:10.598Z,11.95
2022-12-01T09:23:38.210Z,12.43
2022-12-01T09:26:07.791Z,14.98
2022-12-01T09:28:37.079Z,14.93
2022-12-01T09:31:05.831Z,12.55
2022-12-01T09:33:33.494Z,14.40
2022-12-01T09:36:01.106Z,11.80
2022-12-01T09:38:31.918Z,13.10
2022-12-01T09:41:00.701Z,13.40
2022-12-01T09:43:34.139Z,14.18
2022-12-01T09:46:06.076Z,14.80
2022-12-01T09:48:45.376Z,13.40
2022-12-01T09:51:15.703Z,13.48
2022-12-01T09:53:43.611Z,14.68
2022-12-01T09:56:30.767Z,14.68
2022-12-01T09:58:59.221Z,14.07
2022-12-01T10:01:31.918Z,13.45
2022-12-01T10:04:01.516Z,14.82
2022-12-01T10:06:52.104Z,13.88
2022-12-01T10:09:26.475Z,13.50
2022-12-01T10:11:56.869Z,14.00
2022-12-01T10:14:24.099Z,14.68
2022-12-01T10:16:56.659Z,13.07
2022-12-01T10:19:39.022Z,13.82
2022-12-01T10:22:20.420Z,14.75
2022-12-01T10:25:00.706Z,13.07
2022-12-01T10:27:33.676Z,14.48
2022-12-01T10:30:07.062Z,14.55
2022-12-01T10:32:54.117Z,12.88
2022-12-01T10:35:22.471Z,14.75
2022-12-01T10:37:52.705Z,13.40
2022-12-01T10:40:20.023Z,13.95
2022-12-01T10:42:48.315Z,13.45
2022-12-01T10:45:26.699Z,14.43
2022-12-01T10:48:23.593Z,36.55
2022-12-01T10:50:51.983Z,14.23
2022-12-01T10:53:26.443Z,15.60
2022-12-01T10:56:01.827Z,12.73
2022-12-01T10:58:29.215Z,12.00
2022-12-01T11:00:59.971Z,13.40
2022-12-01T11:03:29.492Z,11.73
2022-12-01T11:05:58.288Z,11.82
2022-12-01T11:08:45.796Z,11.88
2022-12-01T11:11:36.313Z,12.45
2022-12-01T11:14:05.626Z,12.13
2022-12-01T11:16:37.585Z,10.93
2022-12-01T11:19:09.165Z,11.50
2022-12-01T11:21:45.148Z,12.77
2022-12-01T11:24:18.963Z,11.80
2022-12-01T11:26:46.252Z,10.63
2022-12-01T11:29:25.471Z,11.40
2022-12-01T11:31:53.303Z,11.13
2022-12-01T11:34:22.571Z,12.40
2022-12-01T11:36:51.396Z,10.70
2022-12-01T11:39:24.401Z,11.48
2022-12-01T11:41:56.223Z,11.65
2022-12-01T11:44:52.492Z,11.70
2022-12-01T11:47:25.409Z,9.98
2022-12-01T11:49:56.679Z,10.98
2022-12-01T11:52:28.361Z,9.88
2022-12-01T11:54:56.730Z,10.93
2022-12-01T11:57:37.928Z,11.68
2022-12-01T12:00:15.654Z,10.52
2022-12-01T12:02:49.838Z,10.45
2022-12-01T12:05:35.858Z,10.80
2022-12-01T12:08:06.251Z,11.80
2022-12-01T12:10:45.820Z,10.88
2022-12-01T12:13:16.080Z,11.27
2022-12-01T12:15:58.674Z,10.63
2022-12-01T12:18:37.517Z,11.80
2022-12-01T12:21:30.575Z,12.65
2022-12-01T12:24:04.061Z,11.48
2022-12-01T12:26:33.657Z,10.73
2022-12-01T12:29:17.304Z,12.85
2022-12-01T12:32:03.194Z,11.65
2022-12-01T12:34:30.363Z,11.95
2022-12-01T12:36:57.706Z,11.30
2022-12-01T12:39:25.012Z,11.48
2022-12-01T12:41:56.533Z,12.18
2022-12-01T12:44:23.834Z,13.63
2022-12-01T12:46:58.086Z,19.85
2022-12-01T12:49:45.654Z,18.73
2022-12-01T12:52:12.839Z,21.20
2022-12-01T12:55:00.401Z,20.75
2022-12-01T12:57:32.483Z,22.95
2022-12-01T13:00:07.683Z,23.42
2022-12-01T13:02:53.891Z,27.20
2022-12-01T13:05:31.830Z,23.58
2022-12-01T13:08:05.369Z,26.13
2022-12-01T13:10:35.491Z,25.05
2022-12-01T13:13:10.451Z,23.38
2022-12-01T13:15:38.095Z,24.17
2022-12-01T13:18:13.780Z,25.58
2022-12-01T13:20:41.556Z,26.13
2022-12-01T13:23:14.821Z,23.63
2022-12-01T13:25:42.368Z,26.17
2022-12-01T13:28:16.033Z,23.85
2022-12-01T13:30:57.894Z,23.35
2022-12-01T13:33:25.298Z,25.90
2022-12-01T13:36:21.322Z,27.80
2022-12-01T13:38:41.191Z,25.95
2022-12-01T13:41:13.672Z,27.40
2022-12-01T13:44:10.127Z,23.15
2022-12-01T13:46:43.647Z,24.17
2022-12-01T13:49:33.238Z,22.75
2022-12-01T13:52:19.728Z,28.67
2022-12-01T13:55:05.941Z,25.60
2022-12-01T13:57:34.088Z,26.35
2022-12-01T14:00:01.326Z,28.58
2022-12-01T14:02:32.811Z,27.38
2022-12-01T14:05:35.761Z,30.35
2022-12-01T14:08:17.042Z,26.30
2022-12-01T14:10:54.487Z,25.42
2022-12-01T14:13:23.241Z,30.73
2022-12-01T14:15:54.907Z,29.48
2022-12-01T14:18:34.362Z,28.35
2022-12-01T14:21:03.365Z,27.45
2022-12-01T14:23:33.905Z,26.90
2022-12-01T14:26:23.492Z,25.15
2022-12-01T14:28:57.078Z,20.00
2022-12-01T14:31:25.671Z,16.52
2022-12-01T14:33:55.013Z,14.63
2022-12-01T14:36:33.247Z,13.85
2022-12-01T14:39:00.473Z,15.55
2022-12-01T14:41:39.924Z,12.23
2022-12-01T14:44:12.232Z,13.77
2022-12-01T14:46:58.209Z,13.82
2022-12-01T14:49:38.416Z,12.25
2022-12-01T14:52:07.147Z,13.52
2022-12-01T14:54:40.013Z,12.82
2022-12-01T14:57:11.063Z,12.57
2022-12-01T14:59:41.070Z,12.30
2022-12-01T15:02:10.251Z,12.60
2022-12-01T15:04:57.463Z,14.05
2022-12-01T15:07:24.823Z,13.75
2022-12-01T15:10:02.660Z,12.43
2022-12-01T15:12:31.447Z,13.95
2022-12-01T15:14:58.672Z,13.32
2022-12-01T15:17:34.592Z,12.95
2022-12-01T15:20:02.089Z,13.13
2022-12-01T15:22:34.732Z,12.43
2022-12-01T15:25:29.002Z,12.70
2022-12-01T15:28:03.351Z,12.07
2022-12-01T15:30:31.494Z,12.65
2022-12-01T15:32:59.327Z,11.82
2022-12-01T15:35:26.764Z,12.98
2022-12-01T15:37:54.507Z,12.00
2022-12-01T15:43:20.986Z,14.18
2022-12-01T15:45:50.599Z,12.18
2022-12-01T15:48:19.140Z,12.20
2022-12-01T15:50:50.229Z,12.88
2022-12-01T15:53:20.940Z,12.43
2022-12-01T15:55:54.159Z,13.52
2022-12-01T15:58:25.919Z,12.10
2022-12-01T16:00:59.514Z,13.05
2022-12-01T16:03:27.264Z,13.50
2022-12-01T16:05:54.941Z,12.93
2022-12-01T16:08:24.453Z,12.57
2022-12-01T16:11:10.768Z,12.32
2022-12-01T16:13:45.681Z,12.60
2022-12-01T16:16:23.150Z,12.73
2022-12-01T16:18:57.991Z,13.40
2022-12-01T16:21:25.926Z,13.45
2022-12-01T16:24:00.719Z,12.68
2022-12-01T16:26:28.720Z,11.90
2022-12-01T16:28:57.099Z,12.98
2022-12-01T16:31:26.302Z,15.68
2022-12-01T16:34:18.435Z,16.23
2022-12-01T16:36:51.681Z,15.57
2022-12-01T16:39:19.274Z,14.27
2022-12-01T16:41:48.230Z,13.88
2022-12-01T16:44:31.375Z,14.52
2022-12-01T16:46:59.116Z,13.45
2022-12-01T16:49:26.936Z,12.85
2022-12-01T16:51:56.357Z,13.55
2022-12-01T16:54:24.163Z,14.88
2022-12-01T16:56:51.892Z,14.15
2022-12-01T16:59:20.337Z,13.55
2022-12-01T17:01:47.928Z,15.02
2022-12-01T17:04:15.669Z,14.63
2022-12-01T17:06:43.365Z,15.20
2022-12-01T17:09:11.075Z,14.50
2022-12-01T17:11:38.642Z,14.55
2022-12-01T17:14:05.950Z,13.23
2022-12-01T17:16:33.290Z,14.77
2022-12-01T17:19:01.774Z,15.40
2022-12-01T17:21:29.406Z,16.38
2022-12-01T17:23:56.703Z,14.02
2022-12-01T17:26:24.116Z,15.18
2022-12-01T17:28:51.456Z,13.77
2022-12-01T17:31:18.806Z,14.52
2022-12-01T17:33:46.515Z,14.80
2022-12-01T17:36:14.682Z,13.38
2022-12-01T17:38:42.870Z,14.65
2022-12-01T17:41:11.408Z,14.35
2022-12-01T17:43:39.396Z,14.48
2022-12-01T17:46:07.793Z,14.05
2022-12-01T17:48:39.158Z,14.50
2022-12-01T17:51:07.027Z,13.73
2022-12-01T17:53:34.418Z,12.98
2022-12-01T17:56:01.733Z,13.80
2022-12-01T17:58:29.007Z,13.48
2022-12-01T18:00:56.292Z,14.23
2022-12-01T18:03:23.693Z,15.52
2022-12-01T18:06:00.802Z,16.55
2022-12-01T18:08:29.271Z,16.05
2022-12-01T18:10:56.657Z,15.13
2022-12-01T18:13:23.915Z,18.88
2022-12-01T18:15:51.258Z,13.80
2022-12-01T18:18:18.520Z,12.20
2022-12-01T18:20:45.970Z,13.25
2022-12-01T18:23:13.914Z,14.65
2022-12-01T18:25:41.265Z,13.32
2022-12-01T18:28:10.992Z,14.27
2022-12-01T18:30:38.891Z,12.80
2022-12-01T18:33:11.004Z,12.05
2022-12-01T18:35:42.380Z,12.95
2022-12-01T18:38:09.624Z,11.60
2022-12-01T18:40:38.070Z,10.80
2022-12-01T18:43:05.733Z,12.18
2022-12-01T18:45:32.992Z,13.13
2022-12-01T18:48:00.251Z,14.25
2022-12-01T18:50:27.935Z,13.63
2022-12-01T18:52:55.161Z,12.98
2022-12-01T18:55:22.372Z,12.38
2022-12-01T18:57:49.645Z,11.80
2022-12-01T19:00:17.124Z,12.00
2022-12-01T19:02:44.398Z,12.15
2022-12-01T19:05:11.741Z,10.73
2022-12-01T19:07:38.971Z,12.02
2022-12-01T19:10:06.581Z,12.70
2022-12-01T19:12:40.691Z,12.95
2022-12-01T19:15:08.629Z,14.57
2022-12-01T19:17:35.885Z,12.13
2022-12-01T19:20:03.134Z,14.20
2022-12-01T19:22:30.375Z,15.95
2022-12-01T19:24:57.657Z,14.77
2022-12-01T19:27:25.367Z,14.52
2022-12-01T19:29:54.030Z,15.52
2022-12-01T19:32:21.549Z,14.10
2022-12-01T19:34:48.992Z,20.92
2022-12-01T19:37:16.483Z,15.15
2022-12-01T19:39:43.724Z,14.38
2022-12-01T19:42:11.126Z,11.98
2022-12-01T19:44:38.400Z,13.15
2022-12-01T19:47:06.545Z,13.00
2022-12-01T19:49:33.950Z,11.95
2022-12-01T19:52:01.650Z,12.90
2022-12-01T19:54:30.506Z,11.68
2022-12-01T19:56:57.933Z,13.88
2022-12-01T19:59:25.314Z,11.25
2022-12-01T20:01:52.597Z,11.60
2022-12-01T20:04:19.854Z,11.95
2022-12-01T20:06:47.258Z,11.90
2022-12-01T20:09:14.491Z,11.27
2022-12-01T20:11:41.739Z,12.10
2022-12-01T20:14:10.825Z,11.82
2022-12-01T20:16:38.331Z,13.35
2022-12-01T20:19:06.357Z,11.27
2022-12-01T20:21:35.356Z,13.05
2022-12-01T20:24:03.839Z,11.52
2022-12-01T20:26:32.711Z,11.85
2022-12-01T20:29:01.789Z,11.68
2022-12-01T20:31:30.158Z,10.85
2022-12-01T20:33:58.443Z,11.20
2022-12-01T20:36:26.418Z,12.85
2022-12-01T20:38:53.674Z,11.98
2022-12-01T20:41:21.001Z,11.27
2022-12-01T20:43:48.519Z,12.07
2022-12-01T20:46:16.320Z,12.73
2022-12-01T20:48:43.773Z,10.35
2022-12-01T20:51:12.735Z,11.38
2022-12-01T20:53:40.164Z,11.38
2022-12-01T20:56:08.708Z,14.70
2022-12-01T20:58:37.882Z,10.60
2022-12-01T21:01:23.600Z,12.55
2022-12-01T21:03:53.796Z,11.82
2022-12-01T21:06:21.499Z,13.35
2022-12-01T21:08:49.772Z,12.77
2022-12-01T21:11:45.677Z,13.60
2022-12-01T21:14:17.407Z,11.80
2022-12-01T21:16:48.270Z,11.65
2022-12-01T21:19:21.018Z,13.07
2022-12-01T21:21:48.288Z,13.95
2022-12-01T21:24:28.496Z,11.82
2022-12-01T21:27:13.619Z,10.10
2022-12-01T21:29:41.843Z,9.23
2022-12-01T21:32:14.061Z,9.65
2022-12-01T21:34:41.570Z,10.68
2022-12-01T21:37:17.976Z,9.70
2022-12-01T21:39:48.358Z,9.23
2022-12-01T21:42:26.849Z,8.73
2022-12-01T21:44:55.069Z,10.13
2022-12-01T21:47:24.037Z,9.18
2022-12-01T21:49:52.636Z,8.80
2022-12-01T21:52:21.542Z,9.45
2022-12-01T21:54:49.135Z,9.55
2022-12-01T21:57:42.729Z,9.00
2022-12-01T22:00:28.875Z,9.88
2022-12-01T22:05:29.610Z,8.98
2022-12-01T22:08:00.398Z,7.78
2022-12-01T22:10:46.310Z,8.63
2022-12-01T22:13:13.654Z,8.60
2022-12-01T22:15:41.738Z,8.27
2022-12-01T22:18:18.335Z,7.75
2022-12-01T22:20:45.560Z,8.38
2022-12-01T22:23:15.626Z,7.35
2022-12-01T22:25:43.175Z,8.23
2022-12-01T22:28:15.336Z,7.60
2022-12-01T22:30:44.404Z,7.28
2022-12-01T22:33:15.340Z,7.72
2022-12-01T22:35:44.935Z,9.27
2022-12-01T22:38:12.253Z,8.00
2022-12-01T22:40:51.553Z,7.65
2022-12-01T22:43:18.761Z,7.70
2022-12-01T22:45:49.925Z,7.43
2022-12-01T22:48:17.124Z,8.52
2022-12-01T22:50:48.653Z,7.07
2022-12-01T22:53:20.025Z,7.88
2022-12-01T22:55:47.308Z,7.75
2022-12-01T22:58:23.750Z,8.25
2022-12-01T23:00:51.055Z,8.25
2022-12-01T23:03:18.515Z,7.40
2022-12-01T23:05:46.319Z,8.57
2022-12-01T23:08:17.445Z,6.82
2022-12-01T23:10:44.691Z,8.90
2022-12-01T23:13:20.727Z,6.82
2022-12-01T23:15:50.391Z,6.97
2022-12-01T23:18:22.757Z,8.52
2022-12-01T23:20:51.298Z,8.32
2022-12-01T23:23:19.704Z,8.82
2022-12-01T23:25:47.692Z,9.10
2022-12-01T23:28:15.245Z,8.13
2022-12-01T23:30:44.998Z,8.82
2022-12-01T23:33:18.488Z,8.45
2022-12-01T23:35:45.672Z,7.65
2022-12-01T23:38:17.523Z,7.60
2022-12-01T23:40:45.064Z,8.18
2022-12-01T23:43:14.650Z,8.45
2022-12-01T23:45:42.051Z,9.30
2022-12-01T23:48:15.540Z,8.98
2022-12-01T23:50:42.871Z,8.98
2022-12-01T23:53:23.040Z,9.68
2022-12-01T23:55:51.263Z,8.23
2022-12-01T23:58:18.871Z,8.45
